sensor_id;sensor_type;location;lat;lon;timestamp;pressure;altitude;pressure_sealevel;temperature;humidity
3206;BME280;1615;53.602;11.418;2023-02-21T00:00:03;100761.81;;;11.22;100.00
3206;BME280;1615;53.602;11.418;2023-02-21T00:02:47;100758.31;;;11.16;100.00
3206;BME280;1615;53.602;11.418;2023-02-21T00:05:31;100760.53;;;11.14;100.00
3206;BME280;1615;53.602;11.418;2023-02-21T00:08:15;100759.56;;;11.24;100.00
3206;BME280;1615;53.602;11.418;2023-02-21T00:10:59;100760.09;;;11.26;100.00
3206;BME280;1615;53.602;11.418;2023-02-21T00:13:43;100771.44;;;11.19;100.00
3206;BME280;1615;53.602;11.418;2023-02-21T00:16:27;100703.91;;;10.86;100.00
3206;BME280;1615;53.602;11.418;2023-02-21T00:19:11;100769.53;;;11.20;100.00
3206;BME280;1615;53.602;11.418;2023-02-21T00:21:55;100776.44;;;11.17;100.00
3206;BME280;1615;53.602;11.418;2023-02-21T00:24:39;100648.38;;;10.39;100.00
3206;BME280;1615;53.602;11.418;2023-02-21T00:27:24;100765.66;;;11.21;100.00
3206;BME280;1615;53.602;11.418;2023-02-21T00:30:09;100682.19;;;10.71;100.00
3206;BME280;1615;53.602;11.418;2023-02-21T00:32:54;100771.81;;;11.13;100.00
3206;BME280;1615;53.602;11.418;2023-02-21T00:35:38;100751.56;;;11.09;100.00
3206;BME280;1615;53.602;11.418;2023-02-21T00:38:22;100763.00;;;11.16;100.00
3206;BME280;1615;53.602;11.418;2023-02-21T00:41:06;100761.72;;;11.08;100.00
3206;BME280;1615;53.602;11.418;2023-02-21T00:43:50;100767.56;;;11.02;100.00
3206;BME280;1615;53.602;11.418;2023-02-21T00:46:34;100767.94;;;11.14;100.00
3206;BME280;1615;53.602;11.418;2023-02-21T00:49:18;100779.47;;;11.16;100.00
3206;BME280;1615;53.602;11.418;2023-02-21T00:52:02;100781.50;;;11.05;100.00
3206;BME280;1615;53.602;11.418;2023-02-21T00:54:46;100766.69;;;11.06;100.00
3206;BME280;1615;53.602;11.418;2023-02-21T00:57:31;100767.50;;;11.07;100.00
3206;BME280;1615;53.602;11.418;2023-02-21T01:00:20;100794.44;;;11.05;100.00
3206;BME280;1615;53.602;11.418;2023-02-21T01:03:04;100633.84;;;10.20;100.00
3206;BME280;1615;53.602;11.418;2023-02-21T01:05:49;100777.38;;;11.08;100.00
3206;BME280;1615;53.602;11.418;2023-02-21T01:08:33;100785.09;;;11.06;100.00
3206;BME280;1615;53.602;11.418;2023-02-21T01:11:19;100785.72;;;10.98;100.00
3206;BME280;1615;53.602;11.418;2023-02-21T01:14:04;100778.56;;;11.02;100.00
3206;BME280;1615;53.602;11.418;2023-02-21T01:16:48;100787.06;;;11.00;100.00
3206;BME280;1615;53.602;11.418;2023-02-21T01:19:32;100784.66;;;10.99;100.00
3206;BME280;1615;53.602;11.418;2023-02-21T01:22:16;100785.22;;;10.96;100.00
3206;BME280;1615;53.602;11.418;2023-02-21T01:25:00;100794.50;;;11.00;100.00
3206;BME280;1615;53.602;11.418;2023-02-21T01:27:44;100781.38;;;10.97;100.00
3206;BME280;1615;53.602;11.418;2023-02-21T01:30:27;100776.78;;;10.92;100.00
3206;BME280;1615;53.602;11.418;2023-02-21T01:33:11;100779.75;;;10.96;100.00
3206;BME280;1615;53.602;11.418;2023-02-21T01:35:55;100786.28;;;11.00;100.00
3206;BME280;1615;53.602;11.418;2023-02-21T01:38:40;100784.66;;;10.99;100.00
3206;BME280;1615;53.602;11.418;2023-02-21T01:41:24;100775.31;;;11.00;100.00
3206;BME280;1615;53.602;11.418;2023-02-21T01:44:34;100774.25;;;10.96;100.00
3206;BME280;1615;53.602;11.418;2023-02-21T01:47:19;100765.13;;;11.00;100.00
3206;BME280;1615;53.602;11.418;2023-02-21T01:50:14;100775.09;;;10.96;100.00
3206;BME280;1615;53.602;11.418;2023-02-21T01:53:00;100767.94;;;10.95;100.00
3206;BME280;1615;53.602;11.418;2023-02-21T01:55:45;100761.13;;;10.93;100.00
3206;BME280;1615;53.602;11.418;2023-02-21T01:58:31;100638.16;;;10.26;100.00
3206;BME280;1615;53.602;11.418;2023-02-21T02:01:23;100757.56;;;10.92;100.00
3206;BME280;1615;53.602;11.418;2023-02-21T02:04:08;100748.00;;;10.90;100.00
3206;BME280;1615;53.602;11.418;2023-02-21T02:06:52;100751.66;;;11.04;100.00
3206;BME280;1615;53.602;11.418;2023-02-21T02:09:36;100756.38;;;10.98;100.00
3206;BME280;1615;53.602;11.418;2023-02-21T02:15:25;100752.69;;;11.08;100.00
3206;BME280;1615;53.602;11.418;2023-02-21T02:20:52;100740.00;;;11.12;100.00
3206;BME280;1615;53.602;11.418;2023-02-21T02:29:34;100723.03;;;11.10;100.00
3206;BME280;1615;53.602;11.418;2023-02-21T02:43:09;100726.66;;;11.05;100.00
3206;BME280;1615;53.602;11.418;2023-02-21T02:48:37;100728.94;;;11.17;100.00
3206;BME280;1615;53.602;11.418;2023-02-21T02:51:11;100727.84;;;11.18;100.00
3206;BME280;1615;53.602;11.418;2023-02-21T02:53:38;100731.91;;;11.20;100.00
3206;BME280;1615;53.602;11.418;2023-02-21T02:56:08;100727.84;;;11.18;100.00
3206;BME280;1615;53.602;11.418;2023-02-21T02:58:47;100734.31;;;11.08;100.00
3206;BME280;1615;53.602;11.418;2023-02-21T03:10:06;100735.19;;;10.85;100.00
3206;BME280;1615;53.602;11.418;2023-02-21T03:12:52;100742.66;;;10.80;100.00
3206;BME280;1615;53.602;11.418;2023-02-21T03:15:44;100751.47;;;10.77;100.00
3206;BME280;1615;53.602;11.418;2023-02-21T03:18:16;100747.09;;;10.76;100.00
3206;BME280;1615;53.602;11.418;2023-02-21T03:20:45;100739.47;;;10.73;100.00
3206;BME280;1615;53.602;11.418;2023-02-21T03:23:17;100743.41;;;10.67;100.00
3206;BME280;1615;53.602;11.418;2023-02-21T03:25:44;100757.19;;;10.62;100.00
3206;BME280;1615;53.602;11.418;2023-02-21T03:28:12;100660.03;;;10.07;100.00
3206;BME280;1615;53.602;11.418;2023-02-21T03:30:41;100745.38;;;10.61;100.00
3206;BME280;1615;53.602;11.418;2023-02-21T03:33:07;100745.94;;;10.58;100.00
3206;BME280;1615;53.602;11.418;2023-02-21T03:35:33;100754.50;;;10.57;100.00
3206;BME280;1615;53.602;11.418;2023-02-21T03:37:58;100751.22;;;10.55;100.00
3206;BME280;1615;53.602;11.418;2023-02-21T03:40:28;100752.88;;;10.56;100.00
3206;BME280;1615;53.602;11.418;2023-02-21T03:42:56;100753.44;;;10.53;100.00
3206;BME280;1615;53.602;11.418;2023-02-21T03:45:22;100745.72;;;10.55;100.00
3206;BME280;1615;53.602;11.418;2023-02-21T03:47:47;100735.72;;;10.45;100.00
3206;BME280;1615;53.602;11.418;2023-02-21T03:50:13;100755.66;;;10.51;100.00
3206;BME280;1615;53.602;11.418;2023-02-21T03:52:39;100768.25;;;10.52;100.00
3206;BME280;1615;53.602;11.418;2023-02-21T03:55:06;100761.72;;;10.48;100.00
3206;BME280;1615;53.602;11.418;2023-02-21T03:57:32;100764.19;;;10.49;100.00
3206;BME280;1615;53.602;11.418;2023-02-21T03:59:57;100755.66;;;10.51;100.00
3206;BME280;1615;53.602;11.418;2023-02-21T04:02:22;100752.38;;;10.49;100.00
3206;BME280;1615;53.602;11.418;2023-02-21T04:04:48;100767.78;;;10.45;100.00
3206;BME280;1615;53.602;11.418;2023-02-21T04:07:15;100753.22;;;10.49;100.00
3206;BME280;1615;53.602;11.418;2023-02-21T04:09:40;100783.66;;;10.48;100.00
3206;BME280;1615;53.602;11.418;2023-02-21T04:12:08;100758.97;;;10.48;100.00
3206;BME280;1615;53.602;11.418;2023-02-21T04:14:33;100749.47;;;10.40;100.00
3206;BME280;1615;53.602;11.418;2023-02-21T04:16:59;100453.16;;;8.60;100.00
3206;BME280;1615;53.602;11.418;2023-02-21T04:19:24;100767.22;;;10.48;100.00
3206;BME280;1615;53.602;11.418;2023-02-21T04:21:49;100772.69;;;10.48;100.00
3206;BME280;1615;53.602;11.418;2023-02-21T04:24:15;100783.94;;;10.46;100.00
3206;BME280;1615;53.602;11.418;2023-02-21T04:26:40;100790.97;;;10.52;100.00
3206;BME280;1615;53.602;11.418;2023-02-21T04:29:06;100784.72;;;10.52;100.00
3206;BME280;1615;53.602;11.418;2023-02-21T04:31:34;100788.56;;;10.51;100.00
3206;BME280;1615;53.602;11.418;2023-02-21T04:33:59;100683.81;;;9.83;100.00
3206;BME280;1615;53.602;11.418;2023-02-21T04:36:26;100785.63;;;10.42;100.00
3206;BME280;1615;53.602;11.418;2023-02-21T04:38:51;100784.03;;;10.36;100.00
3206;BME280;1615;53.602;11.418;2023-02-21T04:41:18;100791.34;;;10.46;100.00
3206;BME280;1615;53.602;11.418;2023-02-21T04:43:43;100657.25;;;9.60;100.00
3206;BME280;1615;53.602;11.418;2023-02-21T04:46:10;100791.34;;;10.46;100.00
3206;BME280;1615;53.602;11.418;2023-02-21T04:48:40;100796.91;;;10.41;100.00
3206;BME280;1615;53.602;11.418;2023-02-21T04:51:05;100794.78;;;10.33;100.00
3206;BME280;1615;53.602;11.418;2023-02-21T04:53:31;100798.69;;;10.27;100.00
3206;BME280;1615;53.602;11.418;2023-02-21T04:55:58;100798.63;;;10.32;100.00
3206;BME280;1615;53.602;11.418;2023-02-21T04:58:24;100805.22;;;10.31;100.00
3206;BME280;1615;53.602;11.418;2023-02-21T05:00:49;100786.66;;;10.23;100.00
3206;BME280;1615;53.602;11.418;2023-02-21T05:03:14;100795.06;;;10.31;100.00
3206;BME280;1615;53.602;11.418;2023-02-21T05:05:40;100806.38;;;10.25;100.00
3206;BME280;1615;53.602;11.418;2023-02-21T05:08:05;100804.69;;;10.29;100.00
3206;BME280;1615;53.602;11.418;2023-02-21T05:10:30;100804.41;;;10.30;100.00
3206;BME280;1615;53.602;11.418;2023-02-21T05:12:56;100813.72;;;10.29;100.00
3206;BME280;1615;53.602;11.418;2023-02-21T05:15:21;100814.56;;;10.30;100.00
3206;BME280;1615;53.602;11.418;2023-02-21T05:17:46;100815.06;;;10.32;100.00
3206;BME280;1615;53.602;11.418;2023-02-21T05:20:12;100818.03;;;10.35;100.00
3206;BME280;1615;53.602;11.418;2023-02-21T05:22:38;100800.19;;;10.14;100.00
3206;BME280;1615;53.602;11.418;2023-02-21T05:25:15;100826.59;;;10.29;100.00
3206;BME280;1615;53.602;11.418;2023-02-21T05:27:40;100826.56;;;10.34;100.00
3206;BME280;1615;53.602;11.418;2023-02-21T05:30:09;100824.13;;;10.32;100.00
3206;BME280;1615;53.602;11.418;2023-02-21T05:32:35;100825.97;;;10.37;100.00
3206;BME280;1615;53.602;11.418;2023-02-21T05:35:00;100823.53;;;10.35;100.00
3206;BME280;1615;53.602;11.418;2023-02-21T05:37:25;100821.34;;;10.37;100.00
3206;BME280;1615;53.602;11.418;2023-02-21T05:39:51;100830.16;;;10.29;100.00
3206;BME280;1615;53.602;11.418;2023-02-21T05:42:16;100835.09;;;10.32;100.00
3206;BME280;1615;53.602;11.418;2023-02-21T05:44:45;100836.47;;;10.30;100.00
3206;BME280;1615;53.602;11.418;2023-02-21T05:47:12;100829.59;;;10.32;100.00
3206;BME280;1615;53.602;11.418;2023-02-21T05:49:37;100838.91;;;10.31;100.00
3206;BME280;1615;53.602;11.418;2023-02-21T05:52:03;100841.97;;;10.30;100.00
3206;BME280;1615;53.602;11.418;2023-02-21T05:54:29;100842.00;;;10.25;100.00
3206;BME280;1615;53.602;11.418;2023-02-21T05:56:54;100767.53;;;9.61;100.00
3206;BME280;1615;53.602;11.418;2023-02-21T05:59:20;100848.59;;;10.24;100.00
3206;BME280;1615;53.602;11.418;2023-02-21T06:01:47;100812.06;;;10.05;100.00
3206;BME280;1615;53.602;11.418;2023-02-21T06:04:12;100842.06;;;10.20;100.00
3206;BME280;1615;53.602;11.418;2023-02-21T06:06:38;100849.72;;;10.18;100.00
3206;BME280;1615;53.602;11.418;2023-02-21T06:09:04;100862.38;;;10.14;100.00
3206;BME280;1615;53.602;11.418;2023-02-21T06:11:32;100852.00;;;10.11;100.00
3206;BME280;1615;53.602;11.418;2023-02-21T06:13:59;100862.72;;;10.07;100.00
3206;BME280;1615;53.602;11.418;2023-02-21T06:16:31;100854.50;;;10.02;100.00
3206;BME280;1615;53.602;11.418;2023-02-21T06:18:57;100861.94;;;9.97;100.00
3206;BME280;1615;53.602;11.418;2023-02-21T06:21:23;100864.16;;;9.95;100.00
3206;BME280;1615;53.602;11.418;2023-02-21T06:23:48;100864.19;;;9.90;100.00
3206;BME280;1615;53.602;11.418;2023-02-21T06:26:17;100870.25;;;9.87;100.00
3206;BME280;1615;53.602;11.418;2023-02-21T06:28:43;100866.97;;;9.85;100.00
3206;BME280;1615;53.602;11.418;2023-02-21T06:31:08;100873.31;;;9.80;100.00
3206;BME280;1615;53.602;11.418;2023-02-21T06:33:37;100876.34;;;9.79;100.00
3206;BME280;1615;53.602;11.418;2023-02-21T06:36:04;100855.63;;;9.68;100.00
3206;BME280;1615;53.602;11.418;2023-02-21T06:38:30;100874.19;;;9.76;100.00
3206;BME280;1615;53.602;11.418;2023-02-21T06:40:55;100870.09;;;9.73;100.00
3206;BME280;1615;53.602;11.418;2023-02-21T06:43:20;100893.91;;;9.73;100.00
3206;BME280;1615;53.602;11.418;2023-02-21T06:45:48;100901.84;;;9.74;100.00
3206;BME280;1615;53.602;11.418;2023-02-21T06:48:15;100890.69;;;9.66;100.00
3206;BME280;1615;53.602;11.418;2023-02-21T06:50:40;100916.31;;;9.75;100.00
3206;BME280;1615;53.602;11.418;2023-02-21T06:53:06;100918.00;;;9.76;100.00
3206;BME280;1615;53.602;11.418;2023-02-21T06:55:31;100896.13;;;9.71;100.00
3206;BME280;1615;53.602;11.418;2023-02-21T06:57:57;100829.34;;;9.28;100.00
3206;BME280;1615;53.602;11.418;2023-02-21T07:00:22;100912.72;;;9.84;100.00
3206;BME280;1615;53.602;11.418;2023-02-21T07:02:47;100920.66;;;9.81;100.00
3206;BME280;1615;53.602;11.418;2023-02-21T07:05:13;100920.94;;;9.84;100.00
3206;BME280;1615;53.602;11.418;2023-02-21T07:07:40;100903.94;;;9.82;100.00
3206;BME280;1615;53.602;11.418;2023-02-21T07:10:07;100920.31;;;9.92;100.00
3206;BME280;1615;53.602;11.418;2023-02-21T07:12:32;100920.59;;;9.91;100.00
3206;BME280;1615;53.602;11.418;2023-02-21T07:14:58;100858.44;;;9.53;100.00
3206;BME280;1615;53.602;11.418;2023-02-21T07:17:25;100929.59;;;9.96;100.00
3206;BME280;1615;53.602;11.418;2023-02-21T07:19:51;100932.34;;;9.96;100.00
3206;BME280;1615;53.602;11.418;2023-02-21T07:22:16;100935.09;;;9.96;100.00
3206;BME280;1615;53.602;11.418;2023-02-21T07:24:43;100947.91;;;10.01;100.00
3206;BME280;1615;53.602;11.418;2023-02-21T07:27:08;100936.94;;;10.01;100.00
3206;BME280;1615;53.602;11.418;2023-02-21T07:29:34;100959.44;;;9.98;100.00
3206;BME280;1615;53.602;11.418;2023-02-21T07:31:59;100953.94;;;10.03;100.00
3206;BME280;1615;53.602;11.418;2023-02-21T07:34:24;100952.84;;;10.04;100.00
3206;BME280;1615;53.602;11.418;2023-02-21T07:36:50;100956.69;;;10.03;100.00
3206;BME280;1615;53.602;11.418;2023-02-21T07:39:15;100968.19;;;10.05;100.00
3206;BME280;1615;53.602;11.418;2023-02-21T07:41:40;100959.41;;;10.08;100.00
3206;BME280;1615;53.602;11.418;2023-02-21T07:44:06;100968.16;;;10.10;100.00
3206;BME280;1615;53.602;11.418;2023-02-21T07:46:32;100966.75;;;10.12;100.00
3206;BME280;1615;53.602;11.418;2023-02-21T07:48:59;100972.47;;;10.16;100.00
3206;BME280;1615;53.602;11.418;2023-02-21T07:51:27;100971.97;;;10.14;100.00
3206;BME280;1615;53.602;11.418;2023-02-21T07:53:53;100927.72;;;9.92;100.00
3206;BME280;1615;53.602;11.418;2023-02-21T07:56:19;100980.16;;;10.19;100.00
3206;BME280;1615;53.602;11.418;2023-02-21T07:58:44;100977.41;;;10.19;100.00
3206;BME280;1615;53.602;11.418;2023-02-21T08:01:09;100977.56;;;10.32;100.00
3206;BME280;1615;53.602;11.418;2023-02-21T08:03:35;100963.66;;;10.24;100.00
3206;BME280;1615;53.602;11.418;2023-02-21T08:06:02;100989.34;;;10.33;100.00
3206;BME280;1615;53.602;11.418;2023-02-21T08:08:27;100990.38;;;10.42;100.00
3206;BME280;1615;53.602;11.418;2023-02-21T08:10:53;100981.00;;;10.48;100.00
3206;BME280;1615;53.602;11.418;2023-02-21T08:13:18;100999.31;;;10.52;100.00
3206;BME280;1615;53.602;11.418;2023-02-21T08:15:43;100992.44;;;10.55;100.00
3206;BME280;1615;53.602;11.418;2023-02-21T08:18:20;101007.25;;;10.54;100.00
3206;BME280;1615;53.602;11.418;2023-02-21T08:20:49;101002.84;;;10.58;100.00
3206;BME280;1615;53.602;11.418;2023-02-21T08:23:15;100692.53;;;8.61;100.00
3206;BME280;1615;53.602;11.418;2023-02-21T08:25:42;101004.94;;;10.66;100.00
3206;BME280;1615;53.602;11.418;2023-02-21T08:28:08;101008.22;;;10.68;100.00
3206;BME280;1615;53.602;11.418;2023-02-21T08:30:33;101003.75;;;10.77;100.00
3206;BME280;1615;53.602;11.418;2023-02-21T08:32:58;101014.06;;;10.90;100.00
3206;BME280;1615;53.602;11.418;2023-02-21T08:35:24;101017.25;;;10.97;100.00
3206;BME280;1615;53.602;11.418;2023-02-21T08:37:49;101020.66;;;10.89;100.00
3206;BME280;1615;53.602;11.418;2023-02-21T08:40:18;100989.47;;;10.80;100.00
3206;BME280;1615;53.602;11.418;2023-02-21T08:42:48;101033.63;;;11.07;100.00
3206;BME280;1615;53.602;11.418;2023-02-21T08:45:16;101024.28;;;11.08;100.00
3206;BME280;1615;53.602;11.418;2023-02-21T08:47:43;101025.34;;;11.12;100.00
3206;BME280;1615;53.602;11.418;2023-02-21T08:50:09;100983.88;;;10.90;100.00
3206;BME280;1615;53.602;11.418;2023-02-21T08:52:35;100976.28;;;10.82;100.00
3206;BME280;1615;53.602;11.418;2023-02-21T08:55:00;100898.94;;;10.28;100.00
3206;BME280;1615;53.602;11.418;2023-02-21T08:57:25;100927.25;;;10.52;100.00
3206;BME280;1615;53.602;11.418;2023-02-21T08:59:51;101027.69;;;11.00;100.00
3206;BME280;1615;53.602;11.418;2023-02-21T09:02:18;101024.38;;;10.98;100.00
3206;BME280;1615;53.602;11.418;2023-02-21T09:04:45;101022.69;;;11.02;100.00
3206;BME280;1615;53.602;11.418;2023-02-21T09:07:14;101024.94;;;11.00;100.00
3206;BME280;1615;53.602;11.418;2023-02-21T09:09:40;101030.50;;;10.90;100.00
3206;BME280;1615;53.602;11.418;2023-02-21T09:12:06;100911.63;;;10.24;100.00
3206;BME280;1615;53.602;11.418;2023-02-21T09:14:33;101026.47;;;11.11;100.00
3206;BME280;1615;53.602;11.418;2023-02-21T09:16:59;101024.22;;;11.13;100.00
3206;BME280;1615;53.602;11.418;2023-02-21T09:19:25;101029.38;;;11.19;100.00
3206;BME280;1615;53.602;11.418;2023-02-21T09:21:50;101029.66;;;11.18;100.00
3206;BME280;1615;53.602;11.418;2023-02-21T09:24:19;101034.00;;;11.24;100.00
3206;BME280;1615;53.602;11.418;2023-02-21T09:26:53;100921.94;;;10.60;100.00
3206;BME280;1615;53.602;11.418;2023-02-21T09:29:22;101013.16;;;11.23;100.00
3206;BME280;1615;53.602;11.418;2023-02-21T09:31:48;101037.97;;;11.36;100.00
3206;BME280;1615;53.602;11.418;2023-02-21T09:34:15;101033.94;;;11.29;100.00
3206;BME280;1615;53.602;11.418;2023-02-21T09:36:40;101032.88;;;11.48;100.00
3206;BME280;1615;53.602;11.418;2023-02-21T09:39:06;101029.78;;;11.55;100.00
3206;BME280;1615;53.602;11.418;2023-02-21T09:41:33;101033.88;;;11.57;100.00
3206;BME280;1615;53.602;11.418;2023-02-21T09:44:00;101037.94;;;11.65;100.00
3206;BME280;1615;53.602;11.418;2023-02-21T09:46:39;101048.34;;;11.68;100.00
3206;BME280;1615;53.602;11.418;2023-02-21T09:49:22;101038.31;;;11.77;100.00
3206;BME280;1615;53.602;11.418;2023-02-21T09:51:49;101053.63;;;11.83;100.00
3206;BME280;1615;53.602;11.418;2023-02-21T09:54:34;101050.44;;;11.76;100.00
3206;BME280;1615;53.602;11.418;2023-02-21T09:57:04;101035.13;;;11.70;100.00
3206;BME280;1615;53.602;11.418;2023-02-21T09:59:29;101058.09;;;11.79;100.00
3206;BME280;1615;53.602;11.418;2023-02-21T10:08:05;101062.22;;;12.00;100.00
3206;BME280;1615;53.602;11.418;2023-02-21T10:11:06;101064.78;;;12.10;100.00
3206;BME280;1615;53.602;11.418;2023-02-21T10:13:55;101068.09;;;12.12;100.00
3206;BME280;1615;53.602;11.418;2023-02-21T10:16:31;101067.03;;;12.08;100.00
3206;BME280;1615;53.602;11.418;2023-02-21T10:19:27;101077.19;;;12.07;100.00
3206;BME280;1615;53.602;11.418;2023-02-21T10:21:56;101065.06;;;12.13;100.00
3206;BME280;1615;53.602;11.418;2023-02-21T10:24:26;101069.66;;;12.18;100.00
3206;BME280;1615;53.602;11.418;2023-02-21T10:27:07;101069.66;;;12.18;100.00
3206;BME280;1615;53.602;11.418;2023-02-21T10:30:06;101078.47;;;12.15;100.00
3206;BME280;1615;53.602;11.418;2023-02-21T10:32:37;100991.06;;;11.56;100.00
3206;BME280;1615;53.602;11.418;2023-02-21T10:35:03;101083.47;;;12.13;100.00
3206;BME280;1615;53.602;11.418;2023-02-21T10:42:43;101093.41;;;12.09;100.00
3206;BME280;1615;53.602;11.418;2023-02-21T10:45:15;101095.09;;;12.05;100.00
3206;BME280;1615;53.602;11.418;2023-02-21T10:50:13;101075.59;;;11.83;100.00
3206;BME280;1615;53.602;11.418;2023-02-21T10:52:50;101089.75;;;11.95;100.00
3206;BME280;1615;53.602;11.418;2023-02-21T10:55:19;101089.16;;;11.98;100.00
3206;BME280;1615;53.602;11.418;2023-02-21T10:57:50;101088.25;;;12.02;100.00
3206;BME280;1615;53.602;11.418;2023-02-21T11:00:27;101099.09;;;11.94;100.00
3206;BME280;1615;53.602;11.418;2023-02-21T11:02:55;101098.38;;;12.07;100.00
3206;BME280;1615;53.602;11.418;2023-02-21T11:05:22;101098.97;;;12.04;100.00
3206;BME280;1615;53.602;11.418;2023-02-21T11:07:58;101116.50;;;12.08;100.00
3206;BME280;1615;53.602;11.418;2023-02-21T11:13:05;101107.19;;;12.04;100.00
3206;BME280;1615;53.602;11.418;2023-02-21T11:15:31;101106.69;;;12.02;100.00
3206;BME280;1615;53.602;11.418;2023-02-21T11:18:21;101102.50;;;11.86;100.00
3206;BME280;1615;53.602;11.418;2023-02-21T11:20:47;101098.19;;;11.80;100.00
3206;BME280;1615;53.602;11.418;2023-02-21T11:25:55;101098.63;;;11.87;100.00
3206;BME280;1615;53.602;11.418;2023-02-21T11:28:22;101099.03;;;11.99;100.00
3206;BME280;1615;53.602;11.418;2023-02-21T11:31:03;101099.72;;;12.09;100.00
3206;BME280;1615;53.602;11.418;2023-02-21T11:33:29;101084.63;;;12.07;100.00
3206;BME280;1615;53.602;11.418;2023-02-21T11:36:16;101123.38;;;12.29;100.00
3206;BME280;1615;53.602;11.418;2023-02-21T11:38:44;101096.38;;;12.31;100.00
3206;BME280;1615;53.602;11.418;2023-02-21T11:41:21;101104.50;;;12.41;100.00
3206;BME280;1615;53.602;11.418;2023-02-21T11:43:49;101096.59;;;12.34;100.00
3206;BME280;1615;53.602;11.418;2023-02-21T11:46:36;101097.72;;;12.52;100.00
3206;BME280;1615;53.602;11.418;2023-02-21T11:49:17;101072.09;;;12.38;100.00
3206;BME280;1615;53.602;11.418;2023-02-21T11:52:06;101059.84;;;12.49;100.00
3206;BME280;1615;53.602;11.418;2023-02-21T11:54:33;101091.53;;;12.78;100.00
3206;BME280;1615;53.602;11.418;2023-02-21T12:02:51;101090.84;;;12.86;100.00
3206;BME280;1615;53.602;11.418;2023-02-21T12:22:13;101096.81;;;12.93;100.00
3206;BME280;1615;53.602;11.418;2023-02-21T12:25:17;101090.00;;;12.72;100.00
3206;BME280;1615;53.602;11.418;2023-02-21T12:39:00;101098.13;;;12.64;100.00
3206;BME280;1615;53.602;11.418;2023-02-21T12:44:14;101053.44;;;12.16;100.00
3206;BME280;1615;53.602;11.418;2023-02-21T12:49:27;101100.41;;;12.38;100.00
3206;BME280;1615;53.602;11.418;2023-02-21T12:52:00;101101.44;;;12.42;100.00
3206;BME280;1615;53.602;11.418;2023-02-21T12:54:41;101000.09;;;11.80;100.00
3206;BME280;1615;53.602;11.418;2023-02-21T12:57:13;101102.50;;;12.46;100.00
3206;BME280;1615;53.602;11.418;2023-02-21T13:00:02;101046.81;;;11.99;100.00
3206;BME280;1615;53.602;11.418;2023-02-21T13:02:43;101110.81;;;12.23;100.00
3206;BME280;1615;53.602;11.418;2023-02-21T13:05:14;101106.19;;;12.18;100.00
3206;BME280;1615;53.602;11.418;2023-02-21T13:07:52;101101.50;;;12.19;100.00
3206;BME280;1615;53.602;11.418;2023-02-21T13:10:27;101115.41;;;12.27;100.00
3206;BME280;1615;53.602;11.418;2023-02-21T13:13:10;101113.09;;;12.34;100.00
3206;BME280;1615;53.602;11.418;2023-02-21T13:15:40;101109.19;;;12.40;100.00
3206;BME280;1615;53.602;11.418;2023-02-21T13:18:09;101112.22;;;12.39;100.00
3206;BME280;1615;53.602;11.418;2023-02-21T13:20:56;101113.94;;;12.35;100.00
3206;BME280;1615;53.602;11.418;2023-02-21T13:23:49;101116.31;;;12.41;100.00
3206;BME280;1615;53.602;11.418;2023-02-21T13:26:34;101104.97;;;12.48;100.00
3206;BME280;1615;53.602;11.418;2023-02-21T13:29:02;101105.97;;;12.52;100.00
3206;BME280;1615;53.602;11.418;2023-02-21T13:31:41;101013.84;;;11.99;100.00
3206;BME280;1615;53.602;11.418;2023-02-21T13:34:08;101107.84;;;12.56;100.00
3206;BME280;1615;53.602;11.418;2023-02-21T13:36:41;101105.47;;;12.50;100.00
3206;BME280;1615;53.602;11.418;2023-02-21T13:39:13;101110.91;;;12.55;100.00
3206;BME280;1615;53.602;11.418;2023-02-21T13:41:52;101101.59;;;12.51;100.00
3206;BME280;1615;53.602;11.418;2023-02-21T13:47:02;101088.81;;;12.41;100.00
3206;BME280;1615;53.602;11.418;2023-02-21T13:49:56;101101.59;;;12.51;100.00
3206;BME280;1615;53.602;11.418;2023-02-21T13:52:35;101101.66;;;12.46;100.00
3206;BME280;1615;53.602;11.418;2023-02-21T14:05:27;101065.94;;;12.27;100.00
3206;BME280;1615;53.602;11.418;2023-02-21T14:08:25;101107.59;;;12.53;100.00
3206;BME280;1615;53.602;11.418;2023-02-21T14:13:39;101109.84;;;12.51;100.00
3206;BME280;1615;53.602;11.418;2023-02-21T14:21:20;101092.28;;;12.47;100.00
3206;BME280;1615;53.602;11.418;2023-02-21T14:23:56;101106.94;;;12.61;100.00
3206;BME280;1615;53.602;11.418;2023-02-21T14:27:00;101091.78;;;12.63;100.00
3206;BME280;1615;53.602;11.418;2023-02-21T14:29:38;101104.72;;;12.63;100.00
3206;BME280;1615;53.602;11.418;2023-02-21T14:37:25;101101.38;;;12.66;100.00
3206;BME280;1615;53.602;11.418;2023-02-21T14:40:24;101111.94;;;12.59;100.00
3206;BME280;1615;53.602;11.418;2023-02-21T14:43:05;101105.41;;;12.55;100.00
3206;BME280;1615;53.602;11.418;2023-02-21T14:46:20;101104.97;;;12.48;100.00
3206;BME280;1615;53.602;11.418;2023-02-21T15:00:17;101103.38;;;12.42;100.00
3206;BME280;1615;53.602;11.418;2023-02-21T15:05:30;101108.44;;;12.35;100.00
3206;BME280;1615;53.602;11.418;2023-02-21T15:08:17;101108.50;;;12.30;100.00
3206;BME280;1615;53.602;11.418;2023-02-21T15:10:45;101110.53;;;12.24;100.00
3206;BME280;1615;53.602;11.418;2023-02-21T15:16:05;101111.66;;;12.18;100.00
3206;BME280;1615;53.602;11.418;2023-02-21T15:18:39;101118.59;;;12.16;100.00
3206;BME280;1615;53.602;11.418;2023-02-21T15:21:15;101116.94;;;12.15;100.00
3206;BME280;1615;53.602;11.418;2023-02-21T15:23:46;101117.78;;;12.15;100.00
3206;BME280;1615;53.602;11.418;2023-02-21T15:26:18;101115.59;;;12.12;100.00
3206;BME280;1615;53.602;11.418;2023-02-21T15:28:46;101131.81;;;12.14;100.00
3206;BME280;1615;53.602;11.418;2023-02-21T15:31:26;101106.56;;;12.12;100.00
3206;BME280;1615;53.602;11.418;2023-02-21T15:33:52;101112.63;;;12.09;100.00